createdAt,value
2022-08-26T00:02:07.253Z,99121.56
2022-08-26T00:04:35.464Z,99120.47
2022-08-26T00:07:03.454Z,99121.66
2022-08-26T00:09:37.334Z,99112.34
2022-08-26T00:12:07.561Z,99113.22
2022-08-26T00:14:38.295Z,99113.56
2022-08-26T00:17:06.436Z,99115.78
2022-08-26T00:19:36.708Z,99121.88
2022-08-26T00:22:04.733Z,99121.63
2022-08-26T00:24:32.796Z,99119.75
2022-08-26T00:27:00.763Z,99126.09
2022-08-26T00:29:29.180Z,99127.25
2022-08-26T00:32:02.706Z,99125.94
2022-08-26T00:34:32.175Z,99138.03
2022-08-26T00:37:00.310Z,99134.81
2022-08-26T00:39:28.315Z,99142.25
2022-08-26T00:41:56.354Z,99139.28
2022-08-26T00:44:24.756Z,99140.66
2022-08-26T00:46:54.518Z,99136.03
2022-08-26T00:49:25.916Z,99125.88
2022-08-26T00:51:55.543Z,99139.06
2022-08-26T00:54:26.891Z,99141.28
2022-08-26T00:56:57.706Z,99129.00
2022-08-26T00:59:28.121Z,99139.34
2022-08-26T01:01:56.161Z,99140.16
2022-08-26T01:04:26.103Z,99140.97
2022-08-26T01:06:55.641Z,99137.13
2022-08-26T01:09:23.814Z,99146.19
2022-08-26T01:11:53.884Z,99152.25
2022-08-26T01:14:22.323Z,99149.78
2022-08-26T01:16:50.538Z,99146.53
2022-08-26T01:19:20.672Z,99147.91
2022-08-26T01:21:53.303Z,99154.78
2022-08-26T01:24:23.669Z,99146.56
2022-08-26T01:26:58.651Z,99143.28
2022-08-26T01:29:27.604Z,99148.22
2022-08-26T01:31:56.684Z,99141.06
2022-08-26T01:34:25.708Z,99140.84
2022-08-26T01:36:58.714Z,99152.63
2022-08-26T01:39:28.653Z,99147.97
2022-08-26T01:41:57.055Z,99132.91
2022-08-26T01:44:28.199Z,99136.25
2022-08-26T01:46:56.409Z,99142.78
2022-08-26T01:49:24.496Z,99140.06
2022-08-26T01:51:55.137Z,99143.91
2022-08-26T01:54:23.149Z,99132.41
2022-08-26T01:56:52.822Z,99140.38
2022-08-26T01:59:21.262Z,99144.50
2022-08-26T02:01:49.881Z,99142.28
2022-08-26T02:04:23.177Z,99126.69
2022-08-26T02:06:52.442Z,99147.22
2022-08-26T02:09:20.561Z,99142.31
2022-08-26T02:11:48.707Z,99143.41
2022-08-26T02:14:21.371Z,99142.84
2022-08-26T02:16:50.507Z,99142.88
2022-08-26T02:19:21.233Z,99140.97
2022-08-26T02:21:52.162Z,99137.94
2022-08-26T02:24:21.316Z,99136.59
2022-08-26T02:26:49.296Z,99139.56
2022-08-26T02:29:21.333Z,99128.03
2022-08-26T02:31:49.596Z,99133.50
2022-08-26T02:34:21.843Z,99134.59
2022-08-26T02:36:50.853Z,99134.03
2022-08-26T02:39:22.269Z,99125.25
2022-08-26T02:41:50.527Z,99132.09
2022-08-26T02:44:19.952Z,99135.66
2022-08-26T02:46:48.180Z,99140.06
2022-08-26T02:49:17.283Z,99133.47
2022-08-26T02:51:45.366Z,99137.31
2022-08-26T02:54:13.689Z,99142.78
2022-08-26T02:56:41.658Z,99141.13
2022-08-26T02:59:10.194Z,99149.34
2022-08-26T03:01:40.527Z,99143.84
2022-08-26T03:04:09.677Z,99141.66
2022-08-26T03:06:38.316Z,99146.09
2022-08-26T03:09:06.585Z,99147.47
2022-08-26T03:11:35.803Z,99142.78
2022-08-26T03:14:03.929Z,99149.94
2022-08-26T03:16:33.133Z,99154.63
2022-08-26T03:19:03.134Z,99156.56
2022-08-26T03:21:31.305Z,99164.25
2022-08-26T03:23:59.724Z,99154.94
2022-08-26T03:26:28.481Z,99148.34
2022-08-26T03:29:14.907Z,99155.47
2022-08-26T03:31:43.088Z,99154.38
2022-08-26T03:34:13.002Z,99155.47
2022-08-26T03:36:41.683Z,99148.88
2022-08-26T03:39:09.767Z,99162.03
2022-08-26T03:41:37.864Z,99161.53
2022-08-26T03:44:05.933Z,99156.56
2022-08-26T03:46:34.464Z,99161.53
2022-08-26T03:49:02.854Z,99157.69
2022-08-26T03:51:32.368Z,99164.81
2022-08-26T03:54:03.101Z,99156.88
2022-08-26T03:56:31.110Z,99164.00
2022-08-26T03:59:00.606Z,99161.53
2022-08-26T04:01:28.852Z,99171.94
2022-08-26T04:04:00.730Z,99171.94
2022-08-26T04:06:29.862Z,99172.50
2022-08-26T04:09:00.154Z,99171.38
2022-08-26T04:11:32.150Z,99171.66
2022-08-26T04:14:03.798Z,99164.75
2022-08-26T04:16:32.043Z,99174.06
2022-08-26T04:19:00.171Z,99175.72
2022-08-26T04:21:29.446Z,99170.78
2022-08-26T04:23:58.209Z,99170.50
2022-08-26T04:26:27.763Z,99172.41
2022-08-26T04:28:56.013Z,99164.16
2022-08-26T04:31:26.377Z,99163.06
2022-08-26T04:33:58.913Z,99166.91
2022-08-26T04:36:26.912Z,99175.16
2022-08-26T04:38:55.453Z,99171.31
2022-08-26T04:41:23.865Z,99181.72
2022-08-26T04:43:54.244Z,99180.06
2022-08-26T04:46:24.543Z,99177.31
2022-08-26T04:48:52.850Z,99176.72
2022-08-26T04:51:21.011Z,99177.78
2022-08-26T04:53:49.037Z,99180.53
2022-08-26T04:56:18.359Z,99179.38
2022-08-26T04:58:46.336Z,99182.94
2022-08-26T05:01:15.753Z,99183.72
2022-08-26T05:03:44.874Z,99183.19
2022-08-26T05:06:13.383Z,99181.22
2022-08-26T05:08:41.502Z,99191.34
2022-08-26T05:11:09.667Z,99184.28
2022-08-26T05:13:39.194Z,99188.06
2022-08-26T05:16:08.811Z,99189.41
2022-08-26T05:18:41.085Z,99187.25
2022-08-26T05:21:17.573Z,99196.25
2022-08-26T05:23:45.642Z,99193.50
2022-08-26T05:26:13.656Z,99193.50
2022-08-26T05:28:44.626Z,99196.50
2022-08-26T05:31:14.421Z,99191.50
2022-08-26T05:33:46.777Z,99201.09
2022-08-26T05:36:16.143Z,99207.66
2022-08-26T05:38:44.286Z,99205.94
2022-08-26T05:41:16.165Z,99211.94
2022-08-26T05:43:44.768Z,99207.03
2022-08-26T05:46:12.775Z,99207.16
2022-08-26T05:48:44.427Z,99199.56
2022-08-26T05:51:13.998Z,99196.84
2022-08-26T05:53:43.963Z,99211.16
2022-08-26T05:56:24.851Z,99213.31
2022-08-26T05:58:53.067Z,99212.66
2022-08-26T06:01:22.424Z,99209.19
2022-08-26T06:03:53.092Z,99209.00
2022-08-26T06:06:27.676Z,99215.38
2022-08-26T06:08:56.261Z,99227.06
2022-08-26T06:11:25.676Z,99228.63
2022-08-26T06:13:53.731Z,99226.03
2022-08-26T06:16:23.563Z,99208.69
2022-08-26T06:18:52.527Z,99216.66
2022-08-26T06:21:24.572Z,99227.25
2022-08-26T06:24:11.132Z,99230.00
2022-08-26T06:26:40.048Z,99222.25
2022-08-26T06:29:10.955Z,99228.13
2022-08-26T06:31:43.496Z,99231.34
2022-08-26T06:34:11.822Z,99234.91
2022-08-26T06:36:42.483Z,99239.94
2022-08-26T06:39:12.887Z,99239.00
2022-08-26T06:41:45.070Z,99253.31
2022-08-26T06:44:14.962Z,99255.78
2022-08-26T06:46:44.194Z,99255.72
2022-08-26T06:49:12.505Z,99253.66
2022-08-26T06:51:42.377Z,99253.25
2022-08-26T06:54:10.530Z,99254.13
2022-08-26T06:56:40.117Z,99255.69
2022-08-26T06:59:08.511Z,99264.88
2022-08-26T07:01:38.821Z,99258.31
2022-08-26T07:04:11.316Z,99255.59
2022-08-26T07:06:41.670Z,99262.31
2022-08-26T07:09:11.334Z,99260.22
2022-08-26T07:11:39.720Z,99260.22
2022-08-26T07:14:07.849Z,99257.53
2022-08-26T07:16:35.943Z,99253.75
2022-08-26T07:19:10.821Z,99269.63
2022-08-26T07:21:42.350Z,99252.25
2022-08-26T07:24:11.089Z,99263.31
2022-08-26T07:26:42.973Z,99260.44
2022-08-26T07:29:11.650Z,99264.97
2022-08-26T07:31:42.414Z,99267.13
2022-08-26T07:34:11.062Z,99262.63
2022-08-26T07:36:39.073Z,99263.41
2022-08-26T07:39:08.474Z,99267.34
2022-08-26T07:41:37.083Z,99271.75
2022-08-26T07:44:06.336Z,99265.34
2022-08-26T07:46:36.763Z,99257.84
2022-08-26T07:49:04.860Z,99256.56
2022-08-26T07:51:33.306Z,99256.06
2022-08-26T07:54:01.345Z,99253.88
2022-08-26T07:56:30.707Z,99247.19
2022-08-26T07:58:59.376Z,99247.63
2022-08-26T08:01:29.675Z,99244.91
2022-08-26T08:03:59.011Z,99257.88
2022-08-26T08:06:28.179Z,99266.25
2022-08-26T08:08:56.388Z,99263.63
2022-08-26T08:11:24.540Z,99266.06
2022-08-26T08:13:56.330Z,99260.53
2022-08-26T08:16:25.996Z,99238.19
2022-08-26T08:18:54.567Z,99240.50
2022-08-26T08:21:24.978Z,99233.56
2022-08-26T08:23:53.369Z,99230.06
2022-08-26T08:26:21.699Z,99219.22
2022-08-26T08:28:49.702Z,99216.66
2022-08-26T08:31:52.134Z,99217.59
2022-08-26T08:34:10.836Z,99229.19
2022-08-26T08:36:38.824Z,99228.50
2022-08-26T08:39:07.130Z,99238.63
2022-08-26T08:41:45.214Z,99241.97
2022-08-26T08:44:15.541Z,99237.41
2022-08-26T08:46:45.133Z,99238.44
2022-08-26T08:49:13.134Z,99231.44
2022-08-26T08:51:45.887Z,99231.69
2022-08-26T08:54:14.508Z,99236.91
2022-08-26T08:56:43.937Z,99232.66
2022-08-26T08:59:15.254Z,99234.09
2022-08-26T09:01:54.565Z,99217.47
2022-08-26T09:04:57.489Z,99206.41
2022-08-26T09:07:27.919Z,99196.91
2022-08-26T09:09:57.370Z,99201.19
2022-08-26T09:12:29.401Z,99202.63
2022-08-26T09:15:01.465Z,99211.72
2022-08-26T09:17:37.218Z,99219.44
2022-08-26T09:20:11.629Z,99216.06
2022-08-26T09:22:44.151Z,99217.00
2022-08-26T09:25:14.379Z,99226.13
2022-08-26T09:27:44.448Z,99220.34
2022-08-26T09:30:14.593Z,99221.31
2022-08-26T09:32:55.804Z,99229.59
2022-08-26T09:35:26.391Z,99229.88
2022-08-26T09:37:54.405Z,99220.81
2022-08-26T09:40:27.143Z,99221.47
2022-08-26T09:43:13.641Z,99213.13
2022-08-26T09:45:50.097Z,99214.69
2022-08-26T09:48:30.643Z,99210.63
2022-08-26T09:51:00.184Z,99209.13
2022-08-26T09:53:30.694Z,99219.06
2022-08-26T09:56:17.356Z,99210.91
2022-08-26T09:58:47.254Z,99218.38
2022-08-26T10:01:33.252Z,99217.09
2022-08-26T10:04:11.014Z,99228.31
2022-08-26T10:06:41.571Z,99222.06
2022-08-26T10:09:10.876Z,99219.22
2022-08-26T10:11:40.899Z,99204.22
2022-08-26T10:14:11.446Z,99222.81
2022-08-26T10:16:44.223Z,99210.03
2022-08-26T10:19:14.513Z,99211.91
2022-08-26T10:21:47.013Z,99206.44
2022-08-26T10:24:21.946Z,99204.22
2022-08-26T10:26:53.710Z,99190.09
2022-08-26T10:29:24.413Z,99196.75
2022-08-26T10:31:53.412Z,99197.34
2022-08-26T10:34:28.207Z,99190.59
2022-08-26T10:37:13.874Z,99193.44
2022-08-26T10:39:49.166Z,99183.25
2022-08-26T10:42:23.437Z,99190.22
2022-08-26T10:44:52.567Z,99178.81
2022-08-26T10:47:22.186Z,99162.75
2022-08-26T10:49:51.910Z,99183.56
2022-08-26T10:52:21.790Z,99183.06
2022-08-26T10:54:55.952Z,99179.56
2022-08-26T10:57:26.280Z,99156.56
2022-08-26T10:59:58.940Z,99174.69
2022-08-26T11:02:30.188Z,99158.81
2022-08-26T11:05:03.050Z,99168.41
2022-08-26T11:07:42.426Z,99166.94
2022-08-26T11:10:14.058Z,99162.75
2022-08-26T11:12:51.622Z,99164.25
2022-08-26T11:15:58.639Z,99159.50
2022-08-26T11:18:56.126Z,99158.03
2022-08-26T11:21:51.050Z,99157.03
2022-08-26T11:25:11.582Z,99152.50
2022-08-26T11:27:58.115Z,99142.38
2022-08-26T11:30:57.473Z,99151.31
2022-08-26T11:33:59.689Z,99151.97
2022-08-26T11:36:44.142Z,99143.94
2022-08-26T11:39:19.197Z,99147.69
2022-08-26T11:41:48.093Z,99142.50
2022-08-26T11:44:21.777Z,99134.84
2022-08-26T11:46:57.526Z,99128.13
2022-08-26T11:49:25.840Z,99117.16
2022-08-26T11:51:53.846Z,99113.88
2022-08-26T11:54:30.477Z,99111.00
2022-08-26T11:57:07.772Z,99109.81
2022-08-26T11:59:40.466Z,99126.63
2022-08-26T12:02:13.605Z,99121.31
2022-08-26T12:04:42.769Z,99112.72
2022-08-26T12:07:10.845Z,99103.13
2022-08-26T12:09:52.574Z,99108.72
2022-08-26T12:12:24.250Z,99101.38
2022-08-26T12:15:10.228Z,99093.81
2022-08-26T12:17:38.752Z,99096.22
2022-08-26T12:20:07.564Z,99097.03
2022-08-26T12:22:36.025Z,99101.38
2022-08-26T12:25:08.121Z,99080.25
2022-08-26T12:27:37.022Z,99080.50
2022-08-26T12:30:06.899Z,99092.41
2022-08-26T12:32:36.602Z,99089.53
2022-08-26T12:37:35.837Z,99085.34
2022-08-26T12:40:28.001Z,99084.81
2022-08-26T12:42:56.671Z,99078.97
2022-08-26T12:45:28.130Z,99078.25
2022-08-26T12:47:56.737Z,99080.88
2022-08-26T12:50:26.256Z,99079.13
2022-08-26T12:52:57.540Z,99077.22
2022-08-26T12:55:29.021Z,99076.44
2022-08-26T12:58:11.794Z,99074.53
2022-08-26T13:00:40.928Z,99077.19
2022-08-26T13:03:43.409Z,99077.50
2022-08-26T13:06:16.040Z,99078.91
2022-08-26T13:08:46.773Z,99076.53
2022-08-26T13:11:25.485Z,99074.75
2022-08-26T13:13:54.361Z,99072.28
2022-08-26T13:16:22.715Z,99071.06
2022-08-26T13:18:53.113Z,99075.59
2022-08-26T13:21:22.726Z,99066.22
2022-08-26T13:23:50.904Z,99063.75
2022-08-26T13:26:20.345Z,99062.34
2022-08-26T13:29:01.177Z,99070.69
2022-08-26T13:31:30.947Z,99066.59
2022-08-26T13:33:59.027Z,99067.66
2022-08-26T13:36:27.053Z,99064.28
2022-08-26T13:38:55.313Z,99057.13
2022-08-26T13:41:29.159Z,99047.81
2022-08-26T13:43:58.880Z,99067.75
2022-08-26T13:46:27.918Z,99065.94
2022-08-26T13:48:56.081Z,99065.81
2022-08-26T13:51:24.096Z,99068.44
2022-08-26T13:53:52.199Z,99059.09
2022-08-26T13:56:20.189Z,99060.53
2022-08-26T13:58:49.669Z,99059.47
2022-08-26T14:01:18.005Z,99059.72
2022-08-26T14:03:46.344Z,99062.69
2022-08-26T14:06:14.383Z,99050.66
2022-08-26T14:08:42.607Z,99048.94
2022-08-26T14:11:10.741Z,99052.78
2022-08-26T14:13:39.303Z,99048.00
2022-08-26T14:16:11.406Z,99028.31
2022-08-26T14:18:44.317Z,99051.31
2022-08-26T14:21:14.351Z,99039.09
2022-08-26T14:23:42.506Z,99051.50
2022-08-26T14:26:14.380Z,99051.66
2022-08-26T14:28:56.692Z,99051.78
2022-08-26T14:31:27.235Z,99050.28
2022-08-26T14:33:55.531Z,99049.81
2022-08-26T14:36:29.371Z,99051.09
2022-08-26T14:38:58.318Z,99047.88
2022-08-26T14:41:27.128Z,99038.72
2022-08-26T14:43:58.003Z,99047.69
2022-08-26T14:46:28.832Z,99039.97
2022-08-26T14:49:01.051Z,99040.91
2022-08-26T14:51:30.204Z,99038.88
2022-08-26T14:54:12.218Z,99034.28
2022-08-26T14:56:43.075Z,99028.72
2022-08-26T14:59:11.558Z,99032.66
2022-08-26T15:01:41.077Z,99037.25
2022-08-26T15:04:09.233Z,99039.56
2022-08-26T15:06:37.308Z,99040.72
2022-08-26T15:09:05.604Z,99038.94
2022-08-26T15:11:33.614Z,99044.56
2022-08-26T15:14:01.642Z,99042.94
2022-08-26T15:16:29.864Z,99038.19
2022-08-26T15:18:59.385Z,99039.50
2022-08-26T15:21:27.396Z,99041.00
2022-08-26T15:23:55.407Z,99032.19
2022-08-26T15:26:23.651Z,99036.31
2022-08-26T15:28:51.703Z,99036.47
2022-08-26T15:31:20.158Z,99032.88
2022-08-26T15:33:49.383Z,99034.19
2022-08-26T15:36:18.787Z,99032.91
2022-08-26T15:38:46.956Z,99033.25
2022-08-26T15:41:15.188Z,99035.56
2022-08-26T15:43:43.263Z,99031.81
2022-08-26T15:46:11.911Z,99025.31
2022-08-26T15:48:40.019Z,99034.97
2022-08-26T15:51:08.167Z,99035.66
2022-08-26T15:53:37.549Z,99023.44
2022-08-26T15:56:05.726Z,99026.72
2022-08-26T15:58:33.732Z,99019.72
2022-08-26T16:01:04.397Z,99023.63
2022-08-26T16:03:32.398Z,99017.91
2022-08-26T16:06:00.467Z,99016.97
2022-08-26T16:08:28.550Z,99011.25
2022-08-26T16:11:04.013Z,99015.22
2022-08-26T16:13:39.783Z,99007.25
2022-08-26T16:16:08.651Z,99003.38
2022-08-26T16:18:36.687Z,99013.19
2022-08-26T16:21:13.191Z,99011.06
2022-08-26T16:23:43.271Z,99015.34
2022-08-26T16:26:15.610Z,99010.28
2022-08-26T16:28:43.815Z,99006.50
2022-08-26T16:31:13.436Z,99017.13
2022-08-26T16:33:41.686Z,99015.81
2022-08-26T16:36:10.060Z,99019.53
2022-08-26T16:38:38.534Z,99012.84
2022-08-26T16:41:06.723Z,99016.69
2022-08-26T16:43:36.123Z,99019.94
2022-08-26T16:46:06.676Z,99011.56
2022-08-26T16:48:34.854Z,99011.88
2022-08-26T16:51:02.862Z,99011.78
2022-08-26T16:53:31.490Z,99016.44
2022-08-26T16:55:59.481Z,99015.09
2022-08-26T16:58:27.519Z,99018.13
2022-08-26T17:00:57.313Z,99024.56
2022-08-26T17:03:25.284Z,99019.91
2022-08-26T17:05:53.265Z,99020.13
2022-08-26T17:08:28.460Z,99025.91
2022-08-26T17:10:57.267Z,99026.78
2022-08-26T17:13:35.496Z,99032.53
2022-08-26T17:16:07.128Z,99032.78
2022-08-26T17:18:35.305Z,99041.81
2022-08-26T17:21:03.462Z,99034.75
2022-08-26T17:23:31.558Z,99007.66
2022-08-26T17:25:59.586Z,99040.56
2022-08-26T17:28:27.683Z,99035.47
2022-08-26T17:30:57.159Z,99038.97
2022-08-26T17:33:26.606Z,99041.50
2022-08-26T17:35:54.890Z,99050.38
2022-08-26T17:38:22.932Z,99046.09
2022-08-26T17:40:51.215Z,99050.63
2022-08-26T17:43:19.304Z,99049.59
2022-08-26T17:45:47.412Z,99040.91
2022-08-26T17:48:15.452Z,99050.34
2022-08-26T17:50:49.452Z,99046.88
2022-08-26T17:53:18.912Z,99048.94
2022-08-26T17:55:47.552Z,99052.28
2022-08-26T17:58:16.193Z,99052.38
2022-08-26T18:00:44.721Z,99054.63
2022-08-26T18:03:12.747Z,99058.53
2022-08-26T18:05:40.826Z,99050.84
2022-08-26T18:08:10.311Z,99053.59
2022-08-26T18:10:38.311Z,99061.88
2022-08-26T18:13:06.441Z,99055.31
2022-08-26T18:15:34.468Z,99061.75
2022-08-26T18:18:02.552Z,99064.28
2022-08-26T18:20:30.575Z,99067.16
2022-08-26T18:22:58.673Z,99071.63
2022-08-26T18:25:28.197Z,99074.19
2022-08-26T18:27:56.272Z,99058.09
2022-08-26T18:30:24.393Z,99076.19
2022-08-26T18:32:52.534Z,99072.09
2022-08-26T18:35:21.370Z,99068.00
2022-08-26T18:37:49.564Z,99064.72
2022-08-26T18:40:17.715Z,99063.09
2022-08-26T18:42:47.216Z,99067.22
2022-08-26T18:45:22.032Z,99062.03
2022-08-26T18:47:50.052Z,99069.78
2022-08-26T18:50:18.037Z,99062.09
2022-08-26T18:52:46.017Z,99061.56
2022-08-26T18:55:14.090Z,99067.09
2022-08-26T18:57:42.060Z,99059.94
2022-08-26T19:00:12.647Z,99069.34
2022-08-26T19:02:40.756Z,99071.06
2022-08-26T19:05:10.369Z,99075.50
2022-08-26T19:07:39.682Z,99080.88
2022-08-26T19:10:08.730Z,99085.13
2022-08-26T19:12:36.763Z,99084.91
2022-08-26T19:15:05.354Z,99083.88
2022-08-26T19:17:34.727Z,99075.31
2022-08-26T19:20:03.275Z,99071.44
2022-08-26T19:22:31.350Z,99074.19
2022-08-26T19:24:59.354Z,99075.91
2022-08-26T19:27:27.861Z,99082.81
2022-08-26T19:29:57.428Z,99080.34
2022-08-26T19:32:25.410Z,99077.09
2022-08-26T19:34:54.785Z,99075.47
2022-08-26T19:37:23.227Z,99068.31
2022-08-26T19:39:51.446Z,99077.69
2022-08-26T19:42:19.441Z,99068.88
2022-08-26T19:45:04.761Z,99073.28
2022-08-26T19:47:32.797Z,99073.38
2022-08-26T19:50:02.192Z,99081.09
2022-08-26T19:52:31.388Z,99080.00
2022-08-26T19:54:59.447Z,99076.81
2022-08-26T19:57:27.471Z,99084.63
2022-08-26T19:59:55.425Z,99087.19
2022-08-26T20:02:23.525Z,99088.69
2022-08-26T20:04:51.526Z,99089.81
2022-08-26T20:07:20.926Z,99081.28
2022-08-26T20:09:49.190Z,99076.06
2022-08-26T20:12:17.501Z,99076.06
2022-08-26T20:14:45.727Z,99082.41
2022-08-26T20:17:14.461Z,99082.97
2022-08-26T20:19:59.923Z,99078.19
2022-08-26T20:22:29.344Z,99090.00
2022-08-26T20:24:57.483Z,99090.59
2022-08-26T20:27:38.063Z,99089.56
2022-08-26T20:30:07.615Z,99094.22
2022-08-26T20:32:35.764Z,99098.91
2022-08-26T20:35:03.986Z,99096.66
2022-08-26T20:37:33.408Z,99106.91
2022-08-26T20:40:01.486Z,99105.22
2022-08-26T20:42:30.096Z,99109.31
2022-08-26T20:44:58.069Z,99103.06
2022-08-26T20:47:26.047Z,99108.31
2022-08-26T20:49:57.263Z,99108.03
2022-08-26T20:52:25.344Z,99107.19
2022-08-26T20:54:54.716Z,99111.59
2022-08-26T20:57:22.824Z,99114.59
2022-08-26T20:59:50.887Z,99115.41
2022-08-26T21:02:18.870Z,99109.09
2022-08-26T21:04:46.960Z,99102.78
2022-08-26T21:07:15.015Z,99105.56
2022-08-26T21:09:45.729Z,99110.56
2022-08-26T21:12:15.121Z,99099.91
2022-08-26T21:14:45.668Z,99104.88
2022-08-26T21:17:16.991Z,99105.16
2022-08-26T21:19:45.001Z,99108.16
2022-08-26T21:22:13.010Z,99105.16
2022-08-26T21:24:41.041Z,99108.44
2022-08-26T21:27:09.032Z,99105.97
2022-08-26T21:29:38.365Z,99110.91
2022-08-26T21:32:06.719Z,99101.75
2022-08-26T21:34:34.711Z,99103.97
2022-08-26T21:37:02.802Z,99103.97
2022-08-26T21:39:37.023Z,99096.63
2022-08-26T21:42:07.972Z,99100.72
2022-08-26T21:44:35.976Z,99104.91
2022-08-26T21:47:05.621Z,99108.53
2022-08-26T21:49:33.637Z,99098.09
2022-08-26T21:52:04.575Z,99104.41
2022-08-26T21:54:32.607Z,99116.59
2022-08-26T21:57:00.609Z,99112.47
2022-08-26T21:59:28.699Z,99102.28
2022-08-26T22:01:56.941Z,99103.13
2022-08-26T22:04:26.400Z,99107.22
2022-08-26T22:06:55.646Z,99109.69
2022-08-26T22:09:24.630Z,99105.84
2022-08-26T22:11:52.687Z,99095.41
2022-08-26T22:14:22.012Z,99102.22
2022-08-26T22:16:50.309Z,99096.91
2022-08-26T22:19:20.073Z,99096.88
2022-08-26T22:21:50.875Z,99097.91
2022-08-26T22:24:18.996Z,99095.41
2022-08-26T22:26:47.056Z,99094.81
2022-08-26T22:29:15.266Z,99096.72
2022-08-26T22:31:43.335Z,99098.31
2022-08-26T22:34:12.643Z,99103.78
2022-08-26T22:36:44.044Z,99098.19
2022-08-26T22:39:14.000Z,99095.50
2022-08-26T22:41:43.129Z,99101.03
2022-08-26T22:44:11.738Z,99103.16
2022-08-26T22:46:40.007Z,99094.91
2022-08-26T22:49:09.630Z,99090.00
2022-08-26T22:51:37.731Z,99098.31
2022-08-26T22:54:06.009Z,99090.13
2022-08-26T22:56:35.561Z,99097.84
2022-08-26T22:59:04.212Z,99095.09
2022-08-26T23:01:32.353Z,99101.41
2022-08-26T23:04:00.410Z,99099.78
2022-08-26T23:06:28.424Z,99097.31
2022-08-26T23:08:56.487Z,99099.81
2022-08-26T23:11:24.521Z,99096.88
2022-08-26T23:13:53.907Z,99101.28
2022-08-26T23:16:22.332Z,99096.97
2022-08-26T23:18:50.377Z,99089.28
2022-08-26T23:21:18.441Z,99101.13
2022-08-26T23:23:46.424Z,99102.00
2022-08-26T23:26:17.499Z,99101.81
2022-08-26T23:28:45.804Z,99100.44
2022-08-26T23:31:15.487Z,99104.84
2022-08-26T23:34:00.998Z,99101.03
2022-08-26T23:36:31.122Z,99104.09
2022-08-26T23:39:02.975Z,99092.88
2022-08-26T23:41:31.055Z,99105.56
2022-08-26T23:44:03.235Z,99091.84
2022-08-26T23:46:34.281Z,99097.69
2022-08-26T23:49:02.314Z,99087.25
2022-08-26T23:51:47.416Z,99084.28
2022-08-26T23:54:16.446Z,99092.56
2022-08-26T23:56:44.965Z,99070.41
2022-08-26T23:59:13.028Z,99088.19
